createdAt,value
2022-11-07T00:00:38.289Z,4.75
2022-11-07T00:03:06.237Z,6.93
2022-11-07T00:05:33.786Z,4.32
2022-11-07T00:08:04.365Z,4.88
2022-11-07T00:10:33.528Z,6.85
2022-11-07T00:13:04.629Z,5.00
2022-11-07T00:15:34.276Z,4.68
2022-11-07T00:18:03.746Z,4.55
2022-11-07T00:20:36.874Z,3.78
2022-11-07T00:23:04.318Z,3.78
2022-11-07T00:25:31.553Z,3.58
2022-11-07T00:27:59.343Z,3.90
2022-11-07T00:30:29.452Z,4.00
2022-11-07T00:33:00.217Z,4.10
2022-11-07T00:35:30.538Z,4.05
2022-11-07T00:38:00.628Z,3.97
2022-11-07T00:40:31.326Z,3.63
2022-11-07T00:42:58.656Z,3.63
2022-11-07T00:45:28.586Z,3.50
2022-11-07T00:47:58.686Z,3.63
2022-11-07T00:50:27.634Z,3.70
2022-11-07T00:52:57.285Z,3.25
2022-11-07T00:55:31.769Z,3.50
2022-11-07T00:58:12.708Z,3.67
2022-11-07T01:00:42.300Z,3.38
2022-11-07T01:03:32.149Z,3.65
2022-11-07T01:06:02.236Z,3.03
2022-11-07T01:08:30.743Z,3.17
2022-11-07T01:11:03.044Z,2.80
2022-11-07T01:13:30.443Z,3.70
2022-11-07T01:16:00.918Z,3.35
2022-11-07T01:18:28.345Z,3.20
2022-11-07T01:20:58.385Z,2.80
2022-11-07T01:23:27.856Z,3.13
2022-11-07T01:25:57.113Z,3.17
2022-11-07T01:28:24.929Z,3.53
2022-11-07T01:30:52.937Z,3.78
2022-11-07T01:33:24.570Z,3.53
2022-11-07T01:35:51.958Z,3.70
2022-11-07T01:38:21.839Z,3.30
2022-11-07T01:41:08.462Z,3.40
2022-11-07T01:43:47.864Z,3.70
2022-11-07T01:46:16.231Z,3.53
2022-11-07T01:48:57.661Z,3.42
2022-11-07T01:51:26.498Z,3.22
2022-11-07T01:53:55.134Z,3.55
2022-11-07T01:56:37.053Z,3.30
2022-11-07T01:59:05.678Z,3.20
2022-11-07T02:01:46.463Z,3.80
2022-11-07T02:04:20.290Z,3.47
2022-11-07T02:07:09.524Z,3.67
2022-11-07T02:09:39.125Z,3.80
2022-11-07T02:12:09.293Z,3.20
2022-11-07T02:14:36.490Z,3.42
2022-11-07T02:17:05.441Z,3.70
2022-11-07T02:19:54.101Z,3.10
2022-11-07T02:23:10.035Z,3.22
2022-11-07T02:25:37.941Z,3.08
2022-11-07T02:28:09.641Z,3.20
2022-11-07T02:30:38.911Z,3.60
2022-11-07T02:33:20.118Z,3.38
2022-11-07T02:35:52.574Z,3.30
2022-11-07T02:38:35.194Z,3.00
2022-11-07T02:41:17.804Z,3.45
2022-11-07T02:44:08.075Z,3.15
2022-11-07T02:46:39.626Z,2.90
2022-11-07T02:49:07.170Z,3.28
2022-11-07T02:51:37.021Z,3.00
2022-11-07T02:54:07.746Z,2.70
2022-11-07T02:56:35.052Z,3.28
2022-11-07T02:59:02.779Z,2.97
2022-11-07T03:01:30.736Z,3.40
2022-11-07T03:03:58.331Z,3.10
2022-11-07T03:06:26.326Z,3.17
2022-11-07T03:08:55.101Z,2.65
2022-11-07T03:11:22.644Z,3.10
2022-11-07T03:13:50.995Z,2.90
2022-11-07T03:16:22.067Z,3.13
2022-11-07T03:18:49.675Z,3.20
2022-11-07T03:21:16.851Z,3.15
2022-11-07T03:23:44.327Z,3.25
2022-11-07T03:26:11.546Z,3.00
2022-11-07T03:28:39.662Z,2.75
2022-11-07T03:31:07.026Z,2.95
2022-11-07T03:33:34.448Z,3.00
2022-11-07T03:36:01.999Z,3.13
2022-11-07T03:38:33.997Z,3.15
2022-11-07T03:41:07.798Z,3.17
2022-11-07T03:43:35.258Z,2.70
2022-11-07T03:46:02.545Z,2.88
2022-11-07T03:48:30.102Z,2.97
2022-11-07T03:50:59.460Z,2.90
2022-11-07T03:53:27.534Z,2.83
2022-11-07T03:55:57.334Z,2.92
2022-11-07T03:58:25.296Z,2.60
2022-11-07T04:00:52.915Z,2.55
2022-11-07T04:03:20.227Z,3.25
2022-11-07T04:05:47.626Z,2.90
2022-11-07T04:08:15.065Z,3.17
2022-11-07T04:10:42.582Z,3.33
2022-11-07T04:13:29.018Z,3.10
2022-11-07T04:16:17.693Z,2.70
2022-11-07T04:18:45.694Z,3.00
2022-11-07T04:21:13.081Z,3.10
2022-11-07T04:23:40.475Z,2.67
2022-11-07T04:26:26.552Z,3.22
2022-11-07T04:28:54.000Z,2.90
2022-11-07T04:31:24.854Z,2.70
2022-11-07T04:33:52.482Z,2.78
2022-11-07T04:36:19.715Z,3.17
2022-11-07T04:38:47.049Z,3.45
2022-11-07T04:41:23.648Z,3.20
2022-11-07T04:43:51.393Z,3.15
2022-11-07T04:46:18.949Z,2.78
2022-11-07T04:48:54.516Z,2.72
2022-11-07T04:51:23.101Z,2.38
2022-11-07T04:53:53.810Z,2.90
2022-11-07T04:56:21.335Z,2.65
2022-11-07T04:58:54.722Z,2.60
2022-11-07T05:01:22.187Z,2.80
2022-11-07T05:03:57.243Z,2.83
2022-11-07T05:06:25.137Z,2.72
2022-11-07T05:08:52.749Z,2.60
2022-11-07T05:11:20.276Z,2.80
2022-11-07T05:13:50.503Z,3.00
2022-11-07T05:16:28.097Z,2.90
2022-11-07T05:19:04.046Z,3.03
2022-11-07T05:21:49.487Z,3.22
2022-11-07T05:24:33.102Z,2.67
2022-11-07T05:27:15.686Z,2.90
2022-11-07T05:29:43.895Z,2.72
2022-11-07T05:32:11.387Z,2.80
2022-11-07T05:34:46.003Z,2.90
2022-11-07T05:37:14.068Z,2.80
2022-11-07T05:39:44.961Z,2.58
2022-11-07T05:42:15.920Z,2.65
2022-11-07T05:44:52.207Z,2.78
2022-11-07T05:47:22.570Z,3.20
2022-11-07T05:49:49.906Z,3.22
2022-11-07T05:52:20.569Z,2.60
2022-11-07T05:54:51.816Z,3.22
2022-11-07T05:57:27.310Z,2.90
2022-11-07T05:59:54.671Z,2.67
2022-11-07T06:02:27.595Z,2.97
2022-11-07T06:05:00.515Z,3.20
2022-11-07T06:07:39.383Z,2.60
2022-11-07T06:10:13.250Z,2.90
2022-11-07T06:12:45.586Z,2.63
2022-11-07T06:15:12.952Z,2.53
2022-11-07T06:17:40.143Z,3.00
2022-11-07T06:20:20.034Z,3.67
2022-11-07T06:22:52.726Z,2.80
2022-11-07T06:25:30.380Z,3.25
2022-11-07T06:28:14.944Z,2.75
2022-11-07T06:30:53.329Z,2.90
2022-11-07T06:33:32.500Z,3.30
2022-11-07T06:36:26.388Z,3.17
2022-11-07T06:39:04.206Z,2.97
2022-11-07T06:41:31.460Z,2.78
2022-11-07T06:44:01.890Z,2.90
2022-11-07T06:46:29.739Z,2.63
2022-11-07T06:49:06.369Z,2.80
2022-11-07T06:51:36.488Z,3.30
2022-11-07T06:56:48.568Z,2.97
2022-11-07T06:59:27.209Z,2.92
2022-11-07T07:02:00.209Z,3.35
2022-11-07T07:04:37.424Z,3.00
2022-11-07T07:07:12.437Z,3.15
2022-11-07T07:13:01.728Z,3.17
2022-11-07T07:16:24.048Z,3.15
2022-11-07T07:23:05.686Z,2.83
2022-11-07T07:26:15.707Z,2.70
2022-11-07T07:29:15.935Z,2.80
2022-11-07T07:35:28.222Z,2.72
2022-11-07T07:42:22.590Z,3.28
2022-11-07T07:51:17.669Z,3.13
2022-11-07T07:51:51.550Z,3.50
2022-11-07T07:55:09.813Z,3.20
2022-11-07T07:57:45.419Z,3.25
2022-11-07T08:03:14.113Z,3.40
2022-11-07T08:05:42.069Z,3.08
2022-11-07T08:08:12.958Z,3.00
2022-11-07T08:10:46.361Z,3.50
2022-11-07T08:13:58.482Z,2.87
2022-11-07T08:16:47.325Z,2.60
2022-11-07T08:19:16.777Z,2.80
2022-11-07T08:21:50.387Z,2.80
2022-11-07T08:24:25.426Z,2.95
2022-11-07T08:26:52.898Z,2.80
2022-11-07T08:29:20.439Z,3.13
2022-11-07T08:31:53.864Z,2.72
2022-11-07T08:34:25.793Z,2.55
